createdAt,value
2018-11-10T00:00:23.300Z,85.10
2018-11-10T00:02:52.646Z,85.10
2018-11-10T00:05:22.594Z,85.10
2018-11-10T00:07:51.335Z,85.10
2018-11-10T00:10:21.125Z,84.90
2018-11-10T00:12:50.567Z,84.90
2018-11-10T00:15:19.471Z,84.70
2018-11-10T00:17:48.379Z,84.70
2018-11-10T00:20:17.625Z,84.60
2018-11-10T00:22:46.697Z,84.40
2018-11-10T00:25:15.755Z,84.20
2018-11-10T00:27:45.527Z,83.90
2018-11-10T00:30:16.364Z,83.70
2018-11-10T00:32:45.763Z,83.60
2018-11-10T00:35:14.731Z,83.40
2018-11-10T00:37:44.578Z,83.30
2018-11-10T00:40:16.874Z,83.20
2018-11-10T00:42:45.935Z,83.00
2018-11-10T00:45:14.750Z,82.70
2018-11-10T00:47:44.672Z,82.50
2018-11-10T00:50:14.658Z,82.30
2018-11-10T00:52:43.340Z,82.20
2018-11-10T00:55:11.957Z,82.00
2018-11-10T00:57:40.926Z,82.00
2018-11-10T01:00:11.325Z,81.90
2018-11-10T01:02:40.221Z,81.80
2018-11-10T01:05:08.980Z,81.80
2018-11-10T01:07:37.863Z,81.80
2018-11-10T01:10:09.197Z,81.80
2018-11-10T01:12:38.137Z,81.80
2018-11-10T01:15:08.251Z,81.80
2018-11-10T01:17:37.004Z,81.80
2018-11-10T01:20:06.271Z,82.00
2018-11-10T01:22:34.915Z,82.00
2018-11-10T01:25:03.508Z,81.80
2018-11-10T01:27:32.473Z,81.80
2018-11-10T01:30:01.161Z,81.70
2018-11-10T01:32:29.749Z,81.70
2018-11-10T01:34:58.573Z,81.70
2018-11-10T01:37:27.329Z,81.60
2018-11-10T01:39:55.953Z,81.60
2018-11-10T01:42:24.627Z,81.50
2018-11-10T01:44:53.484Z,81.40
2018-11-10T01:47:22.322Z,81.40
2018-11-10T01:49:50.817Z,81.20
2018-11-10T01:52:19.296Z,81.20
2018-11-10T01:54:47.723Z,80.90
2018-11-10T01:57:16.229Z,80.90
2018-11-10T01:59:44.888Z,80.60
2018-11-10T02:02:13.705Z,80.50
2018-11-10T02:04:42.219Z,80.60
2018-11-10T02:07:10.660Z,80.50
2018-11-10T02:09:39.169Z,80.60
2018-11-10T02:12:07.750Z,80.50
2018-11-10T02:14:36.290Z,80.40
2018-11-10T02:17:04.741Z,80.40
2018-11-10T02:19:33.183Z,80.30
2018-11-10T02:22:01.749Z,80.30
2018-11-10T02:24:30.238Z,80.40
2018-11-10T02:26:58.652Z,80.30
2018-11-10T02:29:27.164Z,80.30
2018-11-10T02:31:55.587Z,80.20
2018-11-10T02:34:24.149Z,80.20
2018-11-10T02:36:52.607Z,80.00
2018-11-10T02:39:21.073Z,79.30
2018-11-10T02:41:49.583Z,80.10
2018-11-10T02:44:18.019Z,80.10
2018-11-10T02:46:46.515Z,80.00
2018-11-10T02:49:14.969Z,80.10
2018-11-10T02:51:43.487Z,80.10
2018-11-10T02:54:12.000Z,80.20
2018-11-10T02:56:40.577Z,80.60
2018-11-10T02:59:09.073Z,81.40
2018-11-10T03:01:37.622Z,82.40
2018-11-10T03:04:06.524Z,83.40
2018-11-10T03:06:34.948Z,84.10
2018-11-10T03:09:03.461Z,84.40
2018-11-10T03:11:31.930Z,84.60
2018-11-10T03:14:00.351Z,85.00
2018-11-10T03:16:28.904Z,85.10
2018-11-10T03:18:57.300Z,85.50
2018-11-10T03:21:25.781Z,85.50
2018-11-10T03:23:54.223Z,85.40
2018-11-10T03:26:22.684Z,85.80
2018-11-10T03:28:51.435Z,85.80
2018-11-10T03:31:19.984Z,85.80
2018-11-10T03:33:48.397Z,86.50
2018-11-10T03:36:16.866Z,86.70
2018-11-10T03:38:45.256Z,87.20
2018-11-10T03:41:13.691Z,87.10
2018-11-10T03:43:42.189Z,87.30
2018-11-10T03:46:10.606Z,87.30
2018-11-10T03:48:39.094Z,87.10
2018-11-10T03:51:24.008Z,87.30
2018-11-10T03:53:52.453Z,86.80
2018-11-10T03:56:21.244Z,87.10
2018-11-10T03:58:49.681Z,87.70
2018-11-10T04:01:18.072Z,87.90
2018-11-10T04:03:46.487Z,87.50
2018-11-10T04:06:14.921Z,88.10
2018-11-10T04:08:43.426Z,87.70
2018-11-10T04:11:11.990Z,87.70
2018-11-10T04:13:40.535Z,87.70
2018-11-10T04:16:09.071Z,88.30
2018-11-10T04:18:37.532Z,88.10
2018-11-10T04:21:06.062Z,88.30
2018-11-10T04:23:34.567Z,88.80
2018-11-10T04:26:07.567Z,88.90
2018-11-10T04:28:36.094Z,89.40
2018-11-10T04:31:17.711Z,89.40
2018-11-10T04:34:05.994Z,89.30
2018-11-10T04:39:49.728Z,89.90
2018-11-10T05:02:34.172Z,90.90
2018-11-10T05:05:08.732Z,91.10
2018-11-10T05:07:37.524Z,91.10
2018-11-10T05:10:07.105Z,91.20
2018-11-10T05:12:35.761Z,91.30
2018-11-10T05:15:04.729Z,91.40
2018-11-10T05:17:35.416Z,91.40
2018-11-10T05:20:11.387Z,91.60
2018-11-10T05:22:39.906Z,91.60
2018-11-10T05:25:09.313Z,91.90
2018-11-10T05:27:37.757Z,92.00
2018-11-10T05:30:06.845Z,92.00
2018-11-10T05:32:35.301Z,92.20
2018-11-10T05:35:03.800Z,92.40
2018-11-10T05:37:32.493Z,92.50
2018-11-10T05:40:00.912Z,92.50
2018-11-10T05:42:29.378Z,92.50
2018-11-10T05:45:11.127Z,92.50
2018-11-10T05:47:40.663Z,92.70
2018-11-10T05:50:13.417Z,92.80
2018-11-10T05:52:41.863Z,92.90
2018-11-10T05:55:10.270Z,93.00
2018-11-10T05:57:39.297Z,92.80
2018-11-10T06:00:09.645Z,92.90
2018-11-10T06:02:38.239Z,92.90
2018-11-10T06:05:18.358Z,92.80
2018-11-10T06:13:33.223Z,92.90
2018-11-10T06:18:57.849Z,92.80
2018-11-10T06:27:26.421Z,92.70
2018-11-10T06:30:02.190Z,92.70
2018-11-10T06:32:30.721Z,92.80
2018-11-10T06:35:07.819Z,92.80
2018-11-10T06:37:36.381Z,92.90
2018-11-10T06:40:15.184Z,93.00
2018-11-10T06:42:44.227Z,93.00
2018-11-10T06:45:25.370Z,92.90
2018-11-10T06:47:53.836Z,92.80
2018-11-10T06:53:26.860Z,92.80
2018-11-10T07:27:19.559Z,92.50
2018-11-10T07:29:47.960Z,92.20
2018-11-10T07:32:16.811Z,92.40
2018-11-10T07:34:46.592Z,92.30
2018-11-10T07:37:15.123Z,92.50
2018-11-10T07:39:43.467Z,92.60
2018-11-10T07:42:11.872Z,92.30
2018-11-10T07:44:40.378Z,92.20
2018-11-10T07:47:08.766Z,92.30
2018-11-10T07:49:37.328Z,92.40
2018-11-10T07:52:06.004Z,92.40
2018-11-10T07:54:34.343Z,92.40
2018-11-10T07:57:02.764Z,92.30
2018-11-10T07:59:31.160Z,92.40
2018-11-10T08:01:59.558Z,92.30
2018-11-10T08:04:28.079Z,92.30
2018-11-10T08:06:56.987Z,92.50
2018-11-10T08:09:27.677Z,92.40
2018-11-10T08:11:57.564Z,92.30
2018-11-10T08:14:26.325Z,92.30
2018-11-10T08:16:56.190Z,92.50
2018-11-10T08:19:24.768Z,92.30
2018-11-10T08:21:53.557Z,92.30
2018-11-10T08:24:22.237Z,92.20
2018-11-10T08:26:51.426Z,92.20
2018-11-10T08:29:20.208Z,92.30
2018-11-10T08:31:49.171Z,92.00
2018-11-10T08:34:18.072Z,92.00
2018-11-10T08:36:47.612Z,91.90
2018-11-10T08:39:16.487Z,92.10
2018-11-10T08:41:49.796Z,91.90
2018-11-10T08:44:18.794Z,91.90
2018-11-10T08:46:47.731Z,91.70
2018-11-10T08:49:16.866Z,91.60
2018-11-10T08:51:45.624Z,91.60
2018-11-10T08:54:14.527Z,91.70
2018-11-10T08:56:43.173Z,91.40
2018-11-10T08:59:11.974Z,91.40
2018-11-10T09:01:40.751Z,91.30
2018-11-10T09:04:10.806Z,91.20
2018-11-10T09:06:39.578Z,91.10
2018-11-10T09:09:09.461Z,91.00
2018-11-10T09:11:38.063Z,91.10
2018-11-10T09:14:06.833Z,90.90
2018-11-10T09:16:35.573Z,90.90
2018-11-10T09:19:04.316Z,90.80
2018-11-10T09:21:33.085Z,90.70
2018-11-10T09:24:01.914Z,90.60
2018-11-10T09:26:30.671Z,90.80
2018-11-10T09:28:59.472Z,90.40
2018-11-10T09:31:28.118Z,90.60
2018-11-10T09:33:56.704Z,90.40
2018-11-10T09:36:25.325Z,90.00
2018-11-10T09:38:54.415Z,89.30
2018-11-10T09:41:23.004Z,89.60
2018-11-10T09:43:51.527Z,89.10
2018-11-10T09:46:20.091Z,88.70
2018-11-10T09:48:49.175Z,88.80
2018-11-10T09:51:18.177Z,87.60
2018-11-10T09:53:46.765Z,87.40
2018-11-10T09:56:15.676Z,87.10
2018-11-10T09:58:44.220Z,86.30
2018-11-10T10:01:13.169Z,85.90
2018-11-10T10:03:41.886Z,84.30
2018-11-10T10:06:10.899Z,85.50
2018-11-10T10:08:43.789Z,83.70
2018-11-10T10:11:12.649Z,82.90
2018-11-10T10:13:42.783Z,83.10
2018-11-10T10:16:12.880Z,83.70
2018-11-10T10:18:46.626Z,83.70
2018-11-10T10:21:15.797Z,83.00
2018-11-10T10:23:44.620Z,81.10
2018-11-10T10:26:24.269Z,79.00
2018-11-10T10:28:53.675Z,78.00
2018-11-10T10:31:23.336Z,78.80
2018-11-10T10:33:52.702Z,79.30
2018-11-10T10:36:22.309Z,79.70
2018-11-10T10:38:52.167Z,80.00
2018-11-10T10:41:21.442Z,80.20
2018-11-10T10:43:54.688Z,80.70
2018-11-10T10:46:23.740Z,80.50
2018-11-10T10:48:52.732Z,80.80
2018-11-10T10:51:21.693Z,81.20
2018-11-10T10:53:52.794Z,81.00
2018-11-10T10:56:21.989Z,81.20
2018-11-10T10:58:51.309Z,81.30
2018-11-10T11:01:25.320Z,81.10
2018-11-10T11:04:00.517Z,80.80
2018-11-10T11:06:29.209Z,80.80
2018-11-10T11:09:12.424Z,81.70
2018-11-10T11:11:50.399Z,81.70
2018-11-10T11:14:24.709Z,81.90
2018-11-10T11:16:56.716Z,82.00
2018-11-10T11:19:39.027Z,81.70
2018-11-10T11:22:21.290Z,82.50
2018-11-10T11:24:57.921Z,83.00
2018-11-10T11:27:32.451Z,83.20
2018-11-10T11:30:30.384Z,83.50
2018-11-10T11:33:13.848Z,83.40
2018-11-10T11:36:22.319Z,83.30
2018-11-10T11:39:00.655Z,83.20
2018-11-10T11:41:35.076Z,83.40
2018-11-10T11:44:07.407Z,83.40
2018-11-10T11:47:12.712Z,83.40
2018-11-10T11:50:02.889Z,83.30
2018-11-10T11:52:35.247Z,83.10
2018-11-10T11:55:23.606Z,83.90
2018-11-10T11:57:52.627Z,84.20
2018-11-10T12:00:21.041Z,84.20
2018-11-10T12:02:50.287Z,84.50
2018-11-10T12:05:18.998Z,84.60
2018-11-10T12:07:47.941Z,84.50
2018-11-10T12:10:19.066Z,85.00
2018-11-10T12:12:49.106Z,84.30
2018-11-10T12:15:17.849Z,84.40
2018-11-10T12:17:47.132Z,84.60
2018-11-10T12:20:16.423Z,84.90
2018-11-10T12:22:45.019Z,85.00
2018-11-10T12:25:15.205Z,85.00
2018-11-10T12:27:44.300Z,85.00
2018-11-10T12:30:13.754Z,85.00
2018-11-10T12:32:43.249Z,85.20
2018-11-10T12:35:46.849Z,85.40
2018-11-10T12:38:16.126Z,85.20
2018-11-10T12:40:45.979Z,85.20
2018-11-10T12:43:15.117Z,84.90
2018-11-10T12:45:51.675Z,85.40
2018-11-10T12:48:21.667Z,85.20
2018-11-10T12:50:53.013Z,85.50
2018-11-10T12:53:22.154Z,86.00
2018-11-10T12:55:53.236Z,86.40
2018-11-10T12:58:23.233Z,86.00
2018-11-10T13:01:00.170Z,86.00
2018-11-10T13:03:29.204Z,86.30
2018-11-10T13:05:59.086Z,87.00
2018-11-10T13:08:29.123Z,87.60
2018-11-10T13:10:58.285Z,87.90
2018-11-10T13:13:27.707Z,89.40
2018-11-10T13:15:56.628Z,90.00
2018-11-10T13:18:25.525Z,90.10
2018-11-10T13:20:54.380Z,90.10
2018-11-10T13:23:23.232Z,90.20
2018-11-10T13:25:52.208Z,90.20
2018-11-10T13:28:20.943Z,90.10
2018-11-10T13:30:50.160Z,90.30
2018-11-10T13:33:19.074Z,90.20
2018-11-10T13:35:48.018Z,90.30
2018-11-10T13:38:17.622Z,90.40
2018-11-10T13:40:46.516Z,90.40
2018-11-10T13:43:15.834Z,90.50
2018-11-10T13:45:47.766Z,90.70
2018-11-10T13:48:17.322Z,90.90
2018-11-10T13:50:46.317Z,91.20
2018-11-10T13:53:15.137Z,91.50
2018-11-10T13:55:44.363Z,91.70
2018-11-10T13:58:13.308Z,91.90
2018-11-10T14:00:42.071Z,92.20
2018-11-10T14:03:11.499Z,92.40
2018-11-10T14:05:40.508Z,92.40
2018-11-10T14:08:09.146Z,92.70
2018-11-10T14:10:38.239Z,93.00
2018-11-10T14:13:06.835Z,92.40
2018-11-10T14:15:35.585Z,92.00
2018-11-10T14:18:04.927Z,92.10
2018-11-10T14:20:33.750Z,92.20
2018-11-10T14:23:02.667Z,92.10
2018-11-10T14:25:31.728Z,92.20
2018-11-10T14:28:00.642Z,92.20
2018-11-10T14:30:29.472Z,92.30
2018-11-10T14:32:58.316Z,92.20
2018-11-10T14:35:27.352Z,92.40
2018-11-10T14:37:56.342Z,92.20
2018-11-10T14:40:25.171Z,92.40
2018-11-10T14:42:54.027Z,91.90
2018-11-10T14:45:22.943Z,92.10
2018-11-10T14:47:51.741Z,92.20
2018-11-10T14:50:20.361Z,92.40
2018-11-10T14:52:49.959Z,92.30
2018-11-10T14:55:18.883Z,92.30
2018-11-10T14:57:47.447Z,92.10
2018-11-10T15:00:17.887Z,92.20
2018-11-10T15:02:46.437Z,92.40
2018-11-10T15:05:15.539Z,92.30
2018-11-10T15:07:45.015Z,92.40
2018-11-10T15:10:15.455Z,92.40
2018-11-10T15:12:44.599Z,92.30
2018-11-10T15:15:14.355Z,92.20
2018-11-10T15:17:43.878Z,92.20
2018-11-10T15:20:13.908Z,92.20
2018-11-10T15:22:44.210Z,92.10
2018-11-10T15:25:17.825Z,92.00
2018-11-10T15:27:47.041Z,92.00
2018-11-10T15:30:17.207Z,92.20
2018-11-10T15:32:47.351Z,92.20
2018-11-10T15:35:17.194Z,92.20
2018-11-10T15:37:47.092Z,92.20
2018-11-10T15:40:16.552Z,92.30
2018-11-10T15:42:45.217Z,92.20
2018-11-10T15:45:14.968Z,92.30
2018-11-10T15:47:44.071Z,92.50
2018-11-10T15:50:13.999Z,92.40
2018-11-10T15:52:42.743Z,92.40
2018-11-10T15:55:11.879Z,92.70
2018-11-10T15:57:41.061Z,92.70
2018-11-10T16:00:12.531Z,92.70
2018-11-10T16:02:41.600Z,92.70
2018-11-10T16:05:11.246Z,92.70
2018-11-10T16:07:40.209Z,92.60
2018-11-10T16:10:09.370Z,92.70
2018-11-10T16:12:38.543Z,92.70
2018-11-10T16:15:08.938Z,92.60
2018-11-10T16:17:38.624Z,92.60
2018-11-10T16:20:10.444Z,93.00
2018-11-10T16:22:39.401Z,92.70
2018-11-10T16:25:08.791Z,92.70
2018-11-10T16:27:37.713Z,92.60
2018-11-10T16:30:08.347Z,92.60
2018-11-10T16:32:37.851Z,92.60
2018-11-10T16:35:06.631Z,92.60
2018-11-10T16:37:35.222Z,92.60
2018-11-10T16:40:04.277Z,92.60
2018-11-10T16:42:32.722Z,92.70
2018-11-10T16:45:01.673Z,92.50
2018-11-10T16:47:30.827Z,92.40
2018-11-10T16:49:59.669Z,92.50
2018-11-10T16:52:28.585Z,92.40
2018-11-10T16:54:57.290Z,92.30
2018-11-10T16:57:27.210Z,92.40
2018-11-10T16:59:56.142Z,92.40
2018-11-10T17:02:25.267Z,92.40
2018-11-10T17:04:54.159Z,92.60
2018-11-10T17:07:22.963Z,92.50
2018-11-10T17:09:51.799Z,92.50
2018-11-10T17:12:20.470Z,92.40
2018-11-10T17:14:50.719Z,92.30
2018-11-10T17:17:19.718Z,92.20
2018-11-10T17:19:48.634Z,92.00
2018-11-10T17:22:18.555Z,92.00
2018-11-10T17:24:47.841Z,92.00
2018-11-10T17:27:16.320Z,92.00
2018-11-10T17:29:45.687Z,92.10
2018-11-10T17:32:15.684Z,92.20
2018-11-10T17:34:44.272Z,92.20
2018-11-10T17:37:13.144Z,92.30
2018-11-10T17:39:41.811Z,92.30
2018-11-10T17:42:10.713Z,92.10
2018-11-10T17:44:39.841Z,92.10
2018-11-10T17:47:08.498Z,92.10
2018-11-10T17:49:37.603Z,92.20
2018-11-10T17:52:06.527Z,92.40
2018-11-10T17:54:35.478Z,92.40
2018-11-10T17:57:04.565Z,92.50
2018-11-10T17:59:33.537Z,92.40
2018-11-10T18:02:02.171Z,92.30
2018-11-10T18:04:30.859Z,92.30
2018-11-10T18:06:59.483Z,92.50
2018-11-10T18:09:28.261Z,92.50
2018-11-10T18:11:56.962Z,92.50
2018-11-10T18:14:25.632Z,92.40
2018-11-10T18:16:54.638Z,92.20
2018-11-10T18:19:23.664Z,92.20
2018-11-10T18:21:52.890Z,92.30
2018-11-10T18:24:21.645Z,92.30
2018-11-10T18:26:50.701Z,92.40
2018-11-10T18:29:20.807Z,92.30
2018-11-10T18:31:49.389Z,92.30
2018-11-10T18:34:18.890Z,92.30
2018-11-10T18:36:48.178Z,92.40
2018-11-10T18:39:17.665Z,92.40
2018-11-10T18:41:46.925Z,92.20
2018-11-10T18:44:16.230Z,92.10
2018-11-10T18:46:45.441Z,92.10
2018-11-10T18:49:14.317Z,92.10
2018-11-10T18:51:43.461Z,92.10
2018-11-10T18:54:12.241Z,92.20
2018-11-10T18:56:41.311Z,92.20
2018-11-10T18:59:10.251Z,92.20
2018-11-10T19:01:39.715Z,92.30
2018-11-10T19:04:09.172Z,92.40
2018-11-10T19:06:38.058Z,92.30
2018-11-10T19:09:09.768Z,92.30
2018-11-10T19:11:38.510Z,92.40
2018-11-10T19:14:07.449Z,92.20
2018-11-10T19:16:36.567Z,92.30
2018-11-10T19:19:06.648Z,92.20
2018-11-10T19:21:35.703Z,92.10
2018-11-10T19:24:05.239Z,92.10
2018-11-10T19:26:35.140Z,92.20
2018-11-10T19:29:04.459Z,92.20
2018-11-10T19:31:34.032Z,92.20
2018-11-10T19:34:03.193Z,92.30
2018-11-10T19:36:37.811Z,92.30
2018-11-10T19:41:36.130Z,92.30
2018-11-10T19:44:07.569Z,92.40
2018-11-10T19:46:36.571Z,92.40
2018-11-10T19:49:07.056Z,92.40
2018-11-10T19:51:36.279Z,92.40
2018-11-10T19:54:05.442Z,92.30
2018-11-10T19:56:35.131Z,92.30
2018-11-10T19:59:04.302Z,92.30
2018-11-10T20:01:33.605Z,92.00
2018-11-10T20:04:03.393Z,92.10
2018-11-10T20:06:33.491Z,92.30
2018-11-10T20:09:02.693Z,92.60
2018-11-10T20:11:31.895Z,92.10
2018-11-10T20:14:02.411Z,92.20
2018-11-10T20:16:31.667Z,92.30
2018-11-10T20:19:02.411Z,92.40
2018-11-10T20:21:32.840Z,92.60
2018-11-10T20:24:02.781Z,92.50
2018-11-10T20:26:33.121Z,92.60
2018-11-10T20:29:02.258Z,92.60
2018-11-10T20:31:31.266Z,92.50
2018-11-10T20:34:00.998Z,92.60
2018-11-10T20:39:13.268Z,92.60
2018-11-10T20:41:43.304Z,92.70
2018-11-10T20:44:12.830Z,92.70
2018-11-10T20:46:42.587Z,92.70
2018-11-10T20:49:12.283Z,93.10
2018-11-10T20:51:41.640Z,92.70
2018-11-10T20:54:11.563Z,92.70
2018-11-10T20:56:44.866Z,92.80
2018-11-10T20:59:14.283Z,92.80
2018-11-10T21:01:45.103Z,92.70
2018-11-10T21:04:14.299Z,92.70
2018-11-10T21:06:45.077Z,92.70
2018-11-10T21:09:14.771Z,92.70
2018-11-10T21:11:44.129Z,92.70
2018-11-10T21:14:15.290Z,92.70
2018-11-10T21:16:44.688Z,92.60
2018-11-10T21:19:14.691Z,92.70
2018-11-10T21:21:44.458Z,92.70
2018-11-10T21:24:13.793Z,92.80
2018-11-10T21:26:43.016Z,92.50
2018-11-10T21:29:13.005Z,92.50
2018-11-10T21:31:42.142Z,92.60
2018-11-10T21:34:11.255Z,92.70
2018-11-10T21:36:40.447Z,92.70
2018-11-10T21:39:11.089Z,92.60
2018-11-10T21:41:43.651Z,92.70
2018-11-10T21:44:12.652Z,92.80
2018-11-10T21:46:41.997Z,92.70
2018-11-10T21:49:11.846Z,92.70
2018-11-10T21:51:41.677Z,92.70
2018-11-10T21:54:11.458Z,92.60
2018-11-10T21:56:41.409Z,92.50
2018-11-10T21:59:10.741Z,92.60
2018-11-10T22:01:39.760Z,92.60
2018-11-10T22:04:08.754Z,92.60
2018-11-10T22:06:37.558Z,92.60
2018-11-10T22:09:09.163Z,92.60
2018-11-10T22:11:38.038Z,92.70
2018-11-10T22:14:07.983Z,92.70
2018-11-10T22:16:37.049Z,92.70
2018-11-10T22:19:06.156Z,92.70
2018-11-10T22:21:35.833Z,92.70
2018-11-10T22:24:05.304Z,92.80
2018-11-10T22:26:34.791Z,92.80
2018-11-10T22:29:06.444Z,92.80
2018-11-10T22:31:35.191Z,92.80
2018-11-10T22:34:04.120Z,92.80
2018-11-10T22:36:33.139Z,92.70
2018-11-10T22:39:03.957Z,92.70
2018-11-10T22:41:32.900Z,92.70
2018-11-10T22:44:01.936Z,92.70
2018-11-10T22:46:31.258Z,93.00
2018-11-10T22:49:00.424Z,92.70
2018-11-10T22:51:29.396Z,93.00
2018-11-10T22:53:58.290Z,92.70
2018-11-10T22:56:27.305Z,92.70
2018-11-10T22:58:56.564Z,92.70
2018-11-10T23:01:33.141Z,92.70
2018-11-10T23:04:02.388Z,92.70
2018-11-10T23:06:32.668Z,92.70
2018-11-10T23:09:02.681Z,92.70
2018-11-10T23:11:31.916Z,92.70
2018-11-10T23:14:01.755Z,92.70
2018-11-10T23:16:31.183Z,92.70
2018-11-10T23:19:00.174Z,92.70
2018-11-10T23:21:29.594Z,92.70
2018-11-10T23:23:58.647Z,92.70
2018-11-10T23:26:27.277Z,92.70
2018-11-10T23:28:56.054Z,92.60
2018-11-10T23:31:24.905Z,92.70
2018-11-10T23:33:54.044Z,92.70
2018-11-10T23:36:22.909Z,92.60
2018-11-10T23:38:52.316Z,92.60
2018-11-10T23:41:21.423Z,92.50
2018-11-10T23:43:50.478Z,92.50
2018-11-10T23:46:25.621Z,92.50
2018-11-10T23:48:57.639Z,92.50
2018-11-10T23:51:28.077Z,92.50
2018-11-10T23:53:57.019Z,92.50
2018-11-10T23:56:26.007Z,92.50
2018-11-10T23:58:55.533Z,92.50
